Time;durP1;ratioP1;P1;durP2;ratioP2;P2;SDS_P1;SDS_P2;PMS_P1;PMS_P2;Temp;Humidity;BMP_temperature;BMP_pressure;BME280_temperature;BME280_humidity;BME280_pressure;Samples;Min_cycle;Max_cycle;Signal;HPM_P1;HPM_P2
2023/02/20 00:00:37;;;;;;;5.05;2.38;;;;;;;;;;5031350;28;20096;-63
2023/02/20 00:03:04;;;;;;;4.70;2.42;;;;;;;;;;5031554;28;20026;-63
2023/02/20 00:05:30;;;;;;;5.72;2.60;;;;;;;;;;5031051;28;20037;-64
2023/02/20 00:07:56;;;;;;;6.70;2.78;;;;;;;;;;5031507;28;20104;-64
2023/02/20 00:10:23;;;;;;;4.97;2.13;;;;;;;;;;5030992;28;20166;-64
2023/02/20 00:12:49;;;;;;;5.82;2.22;;;;;;;;;;5023111;28;20038;-64
2023/02/20 00:15:18;;;;;;;7.35;2.33;;;;;;;;;;5024840;28;20437;-64
2023/02/20 00:17:46;;;;;;;5.10;2.15;;;;;;;;;;5030864;28;20160;-63
2023/02/20 00:20:13;;;;;;;5.35;2.05;;;;;;;;;;5039613;28;20088;-63
2023/02/20 00:22:39;;;;;;;5.40;2.05;;;;;;;;;;5050862;28;20074;-64
2023/02/20 00:25:05;;;;;;;3.65;1.88;;;;;;;;;;5051093;28;20033;-64
2023/02/20 00:27:31;;;;;;;5.35;2.08;;;;;;;;;;5041761;28;20055;-63
2023/02/20 00:29:57;;;;;;;5.00;1.90;;;;;;;;;;5030510;28;20075;-64
2023/02/20 00:32:23;;;;;;;5.18;1.95;;;;;;;;;;5030770;28;20037;-63
2023/02/20 00:34:49;;;;;;;5.32;1.95;;;;;;;;;;5031368;28;20108;-63
2023/02/20 00:37:15;;;;;;;4.55;2.10;;;;;;;;;;5031321;28;20071;-63
2023/02/20 00:39:41;;;;;;;4.72;2.22;;;;;;;;;;5030772;28;20030;-63
2023/02/20 00:42:07;;;;;;;5.70;1.75;;;;;;;;;;5030780;28;20022;-64
2023/02/20 00:44:33;;;;;;;6.50;2.03;;;;;;;;;;5030447;28;20371;-64
2023/02/20 00:46:59;;;;;;;3.95;1.77;;;;;;;;;;5030883;28;20024;-64
2023/02/20 00:49:25;;;;;;;4.13;1.80;;;;;;;;;;5030376;28;20034;-63
2023/02/20 00:51:51;;;;;;;6.45;2.05;;;;;;;;;;5032331;28;20029;-63
2023/02/20 00:54:17;;;;;;;3.42;1.70;;;;;;;;;;5035120;28;20033;-63
2023/02/20 00:56:43;;;;;;;5.18;1.67;;;;;;;;;;5034820;28;20030;-63
2023/02/20 00:59:09;;;;;;;7.32;2.20;;;;;;;;;;5034962;28;20017;-63
2023/02/20 01:01:35;;;;;;;5.35;2.10;;;;;;;;;;5034678;28;20072;-63
2023/02/20 01:04:01;;;;;;;4.95;1.60;;;;;;;;;;5034904;28;20025;-63
2023/02/20 01:06:27;;;;;;;3.30;1.38;;;;;;;;;;5034569;28;20057;-63
2023/02/20 01:08:53;;;;;;;4.90;1.92;;;;;;;;;;5034379;28;20040;-63
2023/02/20 01:11:19;;;;;;;4.15;1.80;;;;;;;;;;5035077;28;20029;-63
2023/02/20 01:13:45;;;;;;;6.15;1.63;;;;;;;;;;5034326;28;20115;-63
2023/02/20 01:16:11;;;;;;;5.03;1.55;;;;;;;;;;5034647;28;20026;-63
2023/02/20 01:18:37;;;;;;;3.72;1.48;;;;;;;;;;5034411;28;20496;-63
2023/02/20 01:21:03;;;;;;;5.00;1.58;;;;;;;;;;5034556;28;20048;-63
2023/02/20 01:23:29;;;;;;;6.40;1.83;;;;;;;;;;5034000;28;20481;-63
2023/02/20 01:25:55;;;;;;;5.10;1.50;;;;;;;;;;5034569;28;20025;-63
2023/02/20 01:28:21;;;;;;;5.22;1.70;;;;;;;;;;5034239;28;20507;-63
2023/02/20 01:30:47;;;;;;;4.45;1.40;;;;;;;;;;5034192;28;20033;-63
2023/02/20 01:33:13;;;;;;;4.45;1.65;;;;;;;;;;5034380;28;20401;-63
2023/02/20 01:35:39;;;;;;;5.03;1.58;;;;;;;;;;5034066;28;20056;-63
2023/02/20 01:38:05;;;;;;;4.32;1.20;;;;;;;;;;5034330;28;20071;-63
2023/02/20 01:40:32;;;;;;;5.53;1.70;;;;;;;;;;5033965;28;20029;-63
2023/02/20 01:42:58;;;;;;;3.33;1.10;;;;;;;;;;5034294;28;20113;-63
2023/02/20 01:45:24;;;;;;;4.63;1.92;;;;;;;;;;5033363;28;20026;-63
2023/02/20 01:47:51;;;;;;;4.10;1.40;;;;;;;;;;5034285;28;20460;-63
2023/02/20 01:50:23;;;;;;;4.90;1.40;;;;;;;;;;5034459;28;20025;-63
2023/02/20 01:52:50;;;;;;;4.38;1.40;;;;;;;;;;5034300;28;20112;-63
2023/02/20 01:55:18;;;;;;;3.58;1.55;;;;;;;;;;5034289;28;20121;-63
2023/02/20 01:57:48;;;;;;;4.28;1.30;;;;;;;;;;5033729;28;20029;-63
2023/02/20 02:00:17;;;;;;;4.88;1.45;;;;;;;;;;5033614;28;20037;-63
2023/02/20 02:02:48;;;;;;;3.65;1.20;;;;;;;;;;5033658;28;20087;-63
2023/02/20 02:05:15;;;;;;;3.60;1.05;;;;;;;;;;5033755;28;20025;-63
2023/02/20 02:07:41;;;;;;;4.85;1.95;;;;;;;;;;5032909;28;20056;-63
2023/02/20 02:10:09;;;;;;;5.07;2.08;;;;;;;;;;5033563;28;20045;-63
2023/02/20 02:12:36;;;;;;;5.80;1.67;;;;;;;;;;5033493;28;20393;-63
2023/02/20 02:15:02;;;;;;;6.25;2.33;;;;;;;;;;5032019;28;20037;-63
2023/02/20 02:17:28;;;;;;;5.00;1.60;;;;;;;;;;5033281;28;20401;-64
2023/02/20 02:20:12;;;;;;;5.10;1.98;;;;;;;;;;5033501;28;20025;-64
2023/02/20 02:22:44;;;;;;;4.22;1.52;;;;;;;;;;5033140;28;20397;-63
2023/02/20 02:25:16;;;;;;;6.20;1.30;;;;;;;;;;5033438;28;20503;-64
2023/02/20 02:28:00;;;;;;;4.55;1.42;;;;;;;;;;5033158;28;20072;-64
2023/02/20 02:30:35;;;;;;;5.85;1.40;;;;;;;;;;5032727;28;20038;-64
2023/02/20 02:33:04;;;;;;;3.78;1.17;;;;;;;;;;5033231;28;20040;-64
2023/02/20 02:35:30;;;;;;;3.88;1.70;;;;;;;;;;5031071;28;20128;-64
2023/02/20 02:37:59;;;;;;;6.75;1.50;;;;;;;;;;5033486;28;20031;-64
2023/02/20 02:40:40;;;;;;;4.78;1.17;;;;;;;;;;5032960;28;20049;-64
2023/02/20 02:43:09;;;;;;;4.57;1.23;;;;;;;;;;5033163;28;20124;-64
2023/02/20 02:45:44;;;;;;;4.22;1.58;;;;;;;;;;5032790;28;20029;-64
2023/02/20 02:48:25;;;;;;;5.30;1.30;;;;;;;;;;5032980;28;20029;-64
2023/02/20 02:50:53;;;;;;;3.80;1.10;;;;;;;;;;5032547;28;20276;-64
2023/02/20 02:53:19;;;;;;;5.75;2.17;;;;;;;;;;5033142;28;20045;-64
2023/02/20 02:55:45;;;;;;;4.40;1.48;;;;;;;;;;5033072;28;20025;-63
2023/02/20 02:58:12;;;;;;;5.18;1.40;;;;;;;;;;5032731;28;20029;-63
2023/02/20 03:00:59;;;;;;;5.95;1.85;;;;;;;;;;5032477;28;20448;-63
2023/02/20 03:03:28;;;;;;;4.28;1.52;;;;;;;;;;5032611;28;20057;-64
2023/02/20 03:05:56;;;;;;;3.55;1.30;;;;;;;;;;5032400;28;20028;-64
2023/02/20 03:08:29;;;;;;;4.07;1.20;;;;;;;;;;5031789;28;20063;-64
2023/02/20 03:10:57;;;;;;;5.22;1.40;;;;;;;;;;5032367;28;20064;-64
2023/02/20 03:16:08;;;;;;;5.63;1.63;;;;;;;;;;5032015;28;20448;-64
2023/02/20 03:18:38;;;;;;;4.68;1.50;;;;;;;;;;5032188;28;20021;-64
2023/02/20 03:21:16;;;;;;;4.20;1.40;;;;;;;;;;5032437;28;20026;-64
2023/02/20 03:23:44;;;;;;;5.47;1.50;;;;;;;;;;5031579;28;20029;-64
2023/02/20 03:26:17;;;;;;;6.38;1.30;;;;;;;;;;5032170;28;20057;-64
2023/02/20 03:28:45;;;;;;;5.20;1.25;;;;;;;;;;5031928;28;20064;-64
2023/02/20 03:31:14;;;;;;;4.03;1.30;;;;;;;;;;5032043;28;20497;-63
2023/02/20 03:44:52;;;;;;;;;;;;;;;;;;5032352;28;20044;-63
2023/02/20 03:47:19;;;;;;;4.47;1.23;;;;;;;;;;5030902;28;20249;-63
2023/02/20 03:49:45;;;;;;;7.07;1.63;;;;;;;;;;5031575;28;20466;-63
2023/02/20 03:52:11;;;;;;;5.60;1.40;;;;;;;;;;5031020;28;20116;-63
2023/02/20 03:54:37;;;;;;;4.47;1.27;;;;;;;;;;5031533;28;20175;-63
2023/02/20 03:57:06;;;;;;;5.60;1.67;;;;;;;;;;5031701;28;20026;-63
2023/02/20 03:59:34;;;;;;;3.53;1.42;;;;;;;;;;5031430;28;20068;-63
2023/02/20 04:02:03;;;;;;;4.45;1.35;;;;;;;;;;5030709;28;20033;-63
2023/02/20 04:04:35;;;;;;;4.57;1.27;;;;;;;;;;5031142;28;20067;-63
2023/02/20 04:07:04;;;;;;;6.00;1.17;;;;;;;;;;5031552;28;20033;-63
2023/02/20 04:09:32;;;;;;;4.40;1.27;;;;;;;;;;5031215;28;20367;-63
2023/02/20 04:12:14;;;;;;;3.00;1.27;;;;;;;;;;5031378;28;20452;-63
2023/02/20 04:14:40;;;;;;;4.78;1.15;;;;;;;;;;5031199;28;20756;-63
2023/02/20 04:17:08;;;;;;;6.38;1.45;;;;;;;;;;5030962;28;20025;-63
2023/02/20 04:19:34;;;;;;;4.13;1.00;;;;;;;;;;5030687;28;20045;-63
2023/02/20 04:22:04;;;;;;;5.03;1.42;;;;;;;;;;5031395;28;20390;-63
2023/02/20 04:24:34;;;;;;;5.50;1.20;;;;;;;;;;5031090;28;20025;-63
2023/02/20 04:27:00;;;;;;;4.72;1.13;;;;;;;;;;5030100;28;20025;-63
2023/02/20 04:29:27;;;;;;;5.47;1.27;;;;;;;;;;5030029;28;20478;-64
2023/02/20 04:31:53;;;;;;;3.28;1.00;;;;;;;;;;5030767;28;20386;-63
2023/02/20 04:34:19;;;;;;;4.07;1.05;;;;;;;;;;5030992;28;20033;-63
2023/02/20 04:36:45;;;;;;;2.53;1.02;;;;;;;;;;5030493;28;20426;-63
2023/02/20 04:39:11;;;;;;;2.95;0.98;;;;;;;;;;5031122;28;20112;-63
2023/02/20 04:41:37;;;;;;;3.63;1.50;;;;;;;;;;5030804;28;20025;-63
2023/02/20 04:46:48;;;;;;;4.10;1.30;;;;;;;;;;5030980;28;20049;-64
2023/02/20 04:49:14;;;;;;;4.63;1.48;;;;;;;;;;5030964;28;20421;-64
2023/02/20 04:51:40;;;;;;;4.18;1.25;;;;;;;;;;5030354;28;20100;-64
2023/02/20 04:54:06;;;;;;;5.78;1.50;;;;;;;;;;5030900;28;20112;-63
2023/02/20 04:56:32;;;;;;;2.72;1.17;;;;;;;;;;5030798;28;20025;-64
2023/02/20 04:58:58;;;;;;;4.15;1.35;;;;;;;;;;5030873;28;20029;-64
2023/02/20 05:01:24;;;;;;;6.35;1.88;;;;;;;;;;5030798;28;20021;-64
2023/02/20 05:03:50;;;;;;;4.45;0.98;;;;;;;;;;5030903;28;20023;-63
2023/02/20 05:06:16;;;;;;;4.05;1.02;;;;;;;;;;5029370;28;20026;-64
2023/02/20 05:08:42;;;;;;;5.20;1.13;;;;;;;;;;5030347;28;20457;-63
2023/02/20 05:11:08;;;;;;;4.28;1.20;;;;;;;;;;5030841;28;20041;-63
2023/02/20 05:13:34;;;;;;;4.55;1.30;;;;;;;;;;5030361;28;20033;-63
2023/02/20 05:16:00;;;;;;;4.78;1.33;;;;;;;;;;5030662;28;20462;-64
2023/02/20 05:18:27;;;;;;;4.13;1.35;;;;;;;;;;5030901;28;20367;-63
2023/02/20 05:23:38;;;;;;;3.60;0.90;;;;;;;;;;5030645;28;20041;-63
2023/02/20 05:26:08;;;;;;;6.70;1.48;;;;;;;;;;5030517;28;20017;-63
2023/02/20 05:28:34;;;;;;;3.80;1.00;;;;;;;;;;5030407;28;20025;-63
2023/02/20 05:31:00;;;;;;;4.82;1.08;;;;;;;;;;5030556;28;20500;-63
2023/02/20 05:33:26;;;;;;;3.00;0.90;;;;;;;;;;5030292;28;20111;-63
2023/02/20 05:35:52;;;;;;;3.67;1.10;;;;;;;;;;5030309;28;20029;-63
2023/02/20 05:38:18;;;;;;;3.97;1.17;;;;;;;;;;5032805;28;20034;-63
2023/02/20 05:40:44;;;;;;;5.30;1.30;;;;;;;;;;5033892;28;20017;-64
2023/02/20 05:43:10;;;;;;;3.40;0.80;;;;;;;;;;5034270;28;20465;-63
2023/02/20 05:45:36;;;;;;;4.07;1.00;;;;;;;;;;5033958;28;20389;-64
2023/02/20 05:48:02;;;;;;;3.75;1.05;;;;;;;;;;5033668;28;20033;-63
2023/02/20 05:50:28;;;;;;;5.05;1.23;;;;;;;;;;5034020;28;20047;-64
2023/02/20 05:52:54;;;;;;;4.60;0.80;;;;;;;;;;5033354;28;20044;-64
2023/02/20 05:55:20;;;;;;;5.28;1.15;;;;;;;;;;5014400;28;20105;-63
2023/02/20 05:57:46;;;;;;;4.25;1.00;;;;;;;;;;5014378;28;20030;-63
2023/02/20 06:00:12;;;;;;;4.70;1.20;;;;;;;;;;5015207;28;20358;-63
2023/02/20 06:02:38;;;;;;;4.55;1.40;;;;;;;;;;5033736;28;20029;-63
2023/02/20 06:05:06;;;;;;;4.40;1.35;;;;;;;;;;5033896;28;20021;-63
2023/02/20 06:07:32;;;;;;;4.18;0.80;;;;;;;;;;5033581;28;20041;-64
2023/02/20 06:09:58;;;;;;;4.90;1.20;;;;;;;;;;5033007;28;20038;-64
2023/02/20 06:12:24;;;;;;;6.00;1.35;;;;;;;;;;5032883;28;20037;-63
2023/02/20 06:14:50;;;;;;;4.00;1.15;;;;;;;;;;5033817;28;20021;-64
2023/02/20 06:17:16;;;;;;;3.28;0.82;;;;;;;;;;5033671;28;20028;-64
2023/02/20 06:19:42;;;;;;;4.35;1.02;;;;;;;;;;5032800;28;20409;-63
2023/02/20 06:22:08;;;;;;;3.67;1.15;;;;;;;;;;5033575;28;20041;-63
2023/02/20 06:24:34;;;;;;;4.25;1.10;;;;;;;;;;5033262;28;20100;-64
2023/02/20 06:27:00;;;;;;;4.70;1.30;;;;;;;;;;5033433;28;20449;-63
2023/02/20 06:29:26;;;;;;;3.25;1.15;;;;;;;;;;5033361;28;20053;-63
2023/02/20 06:31:52;;;;;;;5.18;1.00;;;;;;;;;;5032888;28;20025;-63
2023/02/20 06:34:18;;;;;;;3.38;1.02;;;;;;;;;;5033187;28;20037;-63
2023/02/20 06:36:44;;;;;;;4.35;0.90;;;;;;;;;;5032756;28;20463;-63
2023/02/20 06:39:12;;;;;;;3.78;1.00;;;;;;;;;;5032299;28;20067;-63
2023/02/20 06:41:38;;;;;;;3.85;1.10;;;;;;;;;;5037328;28;20091;-64
2023/02/20 06:44:04;;;;;;;4.65;1.25;;;;;;;;;;5053161;28;20021;-64
2023/02/20 06:46:30;;;;;;;3.38;0.90;;;;;;;;;;5053149;28;20025;-64
2023/02/20 06:48:58;;;;;;;5.78;1.20;;;;;;;;;;5051833;28;20021;-65
2023/02/20 06:51:24;;;;;;;3.45;0.98;;;;;;;;;;5033758;28;20032;-64
2023/02/20 06:53:51;;;;;;;3.80;1.05;;;;;;;;;;5032820;28;20401;-65
2023/02/20 06:56:19;;;;;;;3.88;1.00;;;;;;;;;;5032746;28;20101;-64
2023/02/20 06:58:48;;;;;;;3.88;1.00;;;;;;;;;;5017751;28;20370;-68
2023/02/20 07:01:15;;;;;;;8.40;0.70;;;;;;;;;;5030728;28;20025;-67
2023/02/20 07:03:41;;;;;;;3.92;0.93;;;;;;;;;;5031435;28;20017;-67
2023/02/20 07:06:07;;;;;;;5.00;1.25;;;;;;;;;;5032613;28;20029;-68
2023/02/20 07:08:33;;;;;;;5.10;0.98;;;;;;;;;;5031184;28;20025;-67
2023/02/20 07:10:59;;;;;;;5.78;1.65;;;;;;;;;;5032370;28;20497;-68
2023/02/20 07:13:25;;;;;;;5.55;1.38;;;;;;;;;;5032579;28;20036;-67
2023/02/20 07:15:51;;;;;;;3.78;1.00;;;;;;;;;;5032480;28;20056;-67
2023/02/20 07:18:17;;;;;;;8.68;1.50;;;;;;;;;;5032411;28;20084;-68
2023/02/20 07:20:44;;;;;;;6.05;1.40;;;;;;;;;;5032180;28;20029;-68
2023/02/20 07:23:10;;;;;;;8.38;2.25;;;;;;;;;;5032313;28;20025;-68
2023/02/20 07:25:36;;;;;;;7.78;2.55;;;;;;;;;;5031700;28;20029;-68
2023/02/20 07:28:01;;;;;;;6.50;2.25;;;;;;;;;;5031772;28;20405;-68
2023/02/20 07:30:27;;;;;;;6.88;2.30;;;;;;;;;;5030636;28;20033;-68
2023/02/20 07:32:53;;;;;;;7.10;2.53;;;;;;;;;;5030525;28;20034;-69
2023/02/20 07:35:19;;;;;;;7.55;2.35;;;;;;;;;;5029842;28;20552;-67
2023/02/20 07:37:46;;;;;;;8.40;2.38;;;;;;;;;;5029872;28;20021;-69
2023/02/20 07:40:12;;;;;;;9.77;2.97;;;;;;;;;;5030142;28;20029;-67
2023/02/20 07:42:38;;;;;;;8.23;3.35;;;;;;;;;;5030065;28;20501;-68
2023/02/20 07:45:04;;;;;;;7.53;2.65;;;;;;;;;;5030437;28;20033;-67
2023/02/20 07:47:30;;;;;;;8.60;2.67;;;;;;;;;;5031101;28;20075;-67
2023/02/20 07:49:56;;;;;;;9.85;2.53;;;;;;;;;;5031583;28;20449;-68
2023/02/20 07:52:22;;;;;;;9.07;2.78;;;;;;;;;;5032108;28;20045;-68
2023/02/20 07:54:48;;;;;;;9.52;2.38;;;;;;;;;;5031427;28;20109;-68
2023/02/20 07:57:14;;;;;;;10.75;2.65;;;;;;;;;;5031345;28;20030;-68
2023/02/20 07:59:40;;;;;;;8.25;2.42;;;;;;;;;;5031403;28;20413;-68
2023/02/20 08:02:06;;;;;;;7.65;2.78;;;;;;;;;;5031565;28;20036;-68
2023/02/20 08:04:32;;;;;;;14.07;2.67;;;;;;;;;;5031303;28;20026;-68
2023/02/20 08:06:58;;;;;;;7.53;2.28;;;;;;;;;;5031636;28;20049;-68
2023/02/20 08:09:24;;;;;;;6.95;2.60;;;;;;;;;;5031774;28;20434;-68
2023/02/20 08:11:50;;;;;;;8.35;3.00;;;;;;;;;;5030288;28;20022;-68
2023/02/20 08:14:16;;;;;;;10.52;2.55;;;;;;;;;;5030511;28;20119;-68
2023/02/20 08:16:42;;;;;;;8.85;2.50;;;;;;;;;;5030555;28;20021;-68
2023/02/20 08:19:08;;;;;;;8.52;2.38;;;;;;;;;;5030759;28;20036;-68
2023/02/20 08:21:34;;;;;;;13.98;3.05;;;;;;;;;;5030275;28;20033;-68
2023/02/20 08:24:00;;;;;;;10.85;2.88;;;;;;;;;;5030722;28;20072;-68
2023/02/20 08:26:26;;;;;;;7.60;2.47;;;;;;;;;;5030863;28;20033;-68
2023/02/20 08:28:53;;;;;;;9.05;2.28;;;;;;;;;;5031283;28;20079;-68
2023/02/20 08:31:20;;;;;;;10.23;2.35;;;;;;;;;;5029848;28;20429;-68
2023/02/20 08:33:46;;;;;;;8.05;2.47;;;;;;;;;;5030724;28;20525;-68
2023/02/20 08:36:14;;;;;;;7.47;2.55;;;;;;;;;;5031096;28;20029;-68
2023/02/20 08:38:40;;;;;;;9.18;2.38;;;;;;;;;;5030755;28;20067;-68
2023/02/20 08:41:07;;;;;;;7.25;2.40;;;;;;;;;;5031225;28;20053;-67
2023/02/20 08:43:34;;;;;;;7.28;2.00;;;;;;;;;;5030916;28;20044;-68
2023/02/20 08:46:00;;;;;;;6.82;2.40;;;;;;;;;;5031121;28;20030;-68
2023/02/20 08:48:26;;;;;;;6.43;2.38;;;;;;;;;;5030923;28;20044;-68
2023/02/20 08:50:52;;;;;;;8.52;2.65;;;;;;;;;;5031050;28;20525;-68
2023/02/20 08:53:18;;;;;;;8.00;2.17;;;;;;;;;;5029594;28;20125;-68
2023/02/20 08:55:44;;;;;;;7.68;2.63;;;;;;;;;;5030746;28;20025;-68
2023/02/20 08:58:10;;;;;;;10.00;2.67;;;;;;;;;;5030962;28;20025;-68
2023/02/20 09:00:36;;;;;;;6.75;1.88;;;;;;;;;;5030675;28;20370;-68
2023/02/20 09:03:06;;;;;;;7.75;2.35;;;;;;;;;;5030925;28;20486;-68
2023/02/20 09:05:33;;;;;;;4.95;1.38;;;;;;;;;;5030995;28;20029;-68
2023/02/20 09:07:59;;;;;;;6.45;1.88;;;;;;;;;;5030932;28;20026;-68
2023/02/20 09:10:25;;;;;;;8.43;1.58;;;;;;;;;;5030904;28;20124;-67
2023/02/20 09:12:50;;;;;;;9.23;1.80;;;;;;;;;;5031894;28;20030;-68
2023/02/20 09:15:17;;;;;;;5.57;1.65;;;;;;;;;;5034831;28;20033;-68
2023/02/20 09:17:44;;;;;;;5.82;1.70;;;;;;;;;;5034489;28;20022;-68
2023/02/20 09:20:10;;;;;;;9.70;2.17;;;;;;;;;;5034777;28;20029;-68
2023/02/20 09:22:36;;;;;;;4.25;1.80;;;;;;;;;;5034381;28;20020;-68
2023/02/20 09:25:03;;;;;;;8.85;2.15;;;;;;;;;;5034657;28;20493;-68
2023/02/20 09:27:29;;;;;;;6.43;1.45;;;;;;;;;;5034586;28;20388;-68
2023/02/20 09:29:55;;;;;;;8.18;1.83;;;;;;;;;;5034622;28;20032;-68
2023/02/20 09:32:21;;;;;;;8.05;2.03;;;;;;;;;;5033054;28;20080;-68
2023/02/20 09:34:47;;;;;;;4.30;1.67;;;;;;;;;;5034203;28;20037;-68
2023/02/20 09:37:13;;;;;;;8.10;2.08;;;;;;;;;;5034360;28;20022;-68
2023/02/20 09:39:39;;;;;;;6.35;1.88;;;;;;;;;;5034040;28;20071;-68
2023/02/20 09:42:08;;;;;;;7.13;2.20;;;;;;;;;;5033494;28;20021;-67
2023/02/20 09:44:40;;;;;;;8.57;2.40;;;;;;;;;;5033054;28;20034;-67
2023/02/20 09:47:16;;;;;;;6.63;1.90;;;;;;;;;;5033381;28;20147;-67
2023/02/20 09:49:42;;;;;;;5.68;1.58;;;;;;;;;;5029907;28;20076;-69
2023/02/20 09:52:11;;;;;;;5.60;1.70;;;;;;;;;;5033239;28;20025;-68
2023/02/20 09:54:43;;;;;;;8.18;1.67;;;;;;;;;;5033023;28;20084;-67
2023/02/20 09:57:17;;;;;;;5.93;1.27;;;;;;;;;;5032463;28;20052;-68
2023/02/20 09:59:48;;;;;;;6.82;1.42;;;;;;;;;;5030897;28;20033;-68
2023/02/20 10:02:23;;;;;;;7.15;2.17;;;;;;;;;;5032417;28;20029;-68
2023/02/20 10:04:53;;;;;;;4.15;1.25;;;;;;;;;;5032703;28;20071;-67
2023/02/20 10:07:19;;;;;;;4.45;1.27;;;;;;;;;;5038963;28;20043;-68
2023/02/20 10:09:45;;;;;;;7.20;1.40;;;;;;;;;;5041992;28;20021;-67
2023/02/20 10:12:30;;;;;;;5.65;1.70;;;;;;;;;;5042573;28;20044;-68
2023/02/20 10:15:15;;;;;;;5.88;1.58;;;;;;;;;;5043041;28;20017;-67
2023/02/20 10:17:44;;;;;;;7.70;1.80;;;;;;;;;;5043527;28;20029;-67
2023/02/20 10:20:30;;;;;;;6.10;1.38;;;;;;;;;;5041270;28;20052;-67
2023/02/20 10:23:15;;;;;;;6.95;1.55;;;;;;;;;;5043040;28;20470;-66
2023/02/20 10:25:43;;;;;;;4.65;1.23;;;;;;;;;;5042421;28;20397;-66
2023/02/20 10:28:12;;;;;;;6.10;1.38;;;;;;;;;;5042662;28;20078;-66
2023/02/20 10:30:40;;;;;;;6.22;1.80;;;;;;;;;;5041811;28;20032;-67
2023/02/20 10:33:09;;;;;;;3.75;1.40;;;;;;;;;;5042062;28;20032;-67
2023/02/20 10:35:37;;;;;;;6.45;1.25;;;;;;;;;;5041446;28;20075;-66
2023/02/20 10:38:06;;;;;;;5.10;1.27;;;;;;;;;;5030528;28;20494;-66
2023/02/20 10:40:34;;;;;;;5.18;1.27;;;;;;;;;;5029525;28;20029;-66
2023/02/20 10:43:00;;;;;;;4.18;1.13;;;;;;;;;;5032266;28;20111;-67
2023/02/20 10:45:32;;;;;;;6.45;1.70;;;;;;;;;;5033449;28;20033;-67
2023/02/20 10:48:03;;;;;;;3.10;1.20;;;;;;;;;;5033461;28;20037;-67
2023/02/20 10:50:33;;;;;;;6.30;1.40;;;;;;;;;;5032199;28;20396;-67
2023/02/20 10:53:18;;;;;;;4.72;1.50;;;;;;;;;;5032899;28;20038;-67
2023/02/20 10:55:54;;;;;;;5.53;1.42;;;;;;;;;;5032617;28;20493;-67
2023/02/20 10:58:29;;;;;;;4.63;1.10;;;;;;;;;;5032981;28;20401;-67
2023/02/20 11:00:58;;;;;;;4.32;1.33;;;;;;;;;;5031231;28;20038;-67
2023/02/20 11:03:24;;;;;;;5.57;1.67;;;;;;;;;;5033322;28;20053;-67
2023/02/20 11:05:52;;;;;;;3.78;1.10;;;;;;;;;;5032524;28;20067;-67
2023/02/20 11:08:20;;;;;;;5.03;1.42;;;;;;;;;;5032732;28;20485;-67
2023/02/20 11:10:52;;;;;;;5.30;1.30;;;;;;;;;;5031956;28;20032;-68
2023/02/20 11:13:22;;;;;;;6.28;1.38;;;;;;;;;;5032371;28;20120;-69
2023/02/20 11:15:49;;;;;;;5.32;0.80;;;;;;;;;;5031887;28;20044;-68
2023/02/20 11:18:28;;;;;;;7.53;1.23;;;;;;;;;;5031861;28;20029;-69
2023/02/20 11:20:55;;;;;;;6.68;1.48;;;;;;;;;;5031702;28;20029;-69
2023/02/20 11:23:33;;;;;;;7.30;1.27;;;;;;;;;;5031942;28;20493;-69
2023/02/20 11:26:13;;;;;;;3.53;1.05;;;;;;;;;;5022420;28;20041;-69
2023/02/20 11:28:39;;;;;;;4.38;1.35;;;;;;;;;;5030728;28;20099;-69
2023/02/20 11:31:06;;;;;;;8.02;1.42;;;;;;;;;;5032668;28;20033;-69
2023/02/20 11:33:34;;;;;;;6.90;1.30;;;;;;;;;;5031338;28;20444;-69
2023/02/20 11:36:20;;;;;;;4.07;1.20;;;;;;;;;;5031759;28;20108;-68
2023/02/20 11:38:46;;;;;;;4.40;1.13;;;;;;;;;;5033493;28;20029;-69
2023/02/20 11:41:23;;;;;;;4.50;1.40;;;;;;;;;;5046229;28;20493;-67
2023/02/20 11:44:03;;;;;;;6.10;1.08;;;;;;;;;;5038755;28;20037;-67
2023/02/20 11:46:29;;;;;;;8.90;1.50;;;;;;;;;;5032429;28;20026;-68
2023/02/20 11:49:01;;;;;;;5.13;1.27;;;;;;;;;;5031751;28;20104;-68
2023/02/20 11:51:30;;;;;;;5.88;1.30;;;;;;;;;;5032229;28;20017;-67
2023/02/20 11:54:13;;;;;;;4.90;1.25;;;;;;;;;;5030458;28;20099;-68
2023/02/20 11:56:52;;;;;;;6.00;1.30;;;;;;;;;;5031622;28;20032;-67
2023/02/20 11:59:26;;;;;;;5.53;1.65;;;;;;;;;;5031450;28;20068;-67
2023/02/20 12:01:52;;;;;;;3.45;1.00;;;;;;;;;;5031518;28;20037;-67
2023/02/20 12:04:19;;;;;;;7.28;1.20;;;;;;;;;;5031611;28;20036;-67
2023/02/20 12:06:45;;;;;;;6.75;1.30;;;;;;;;;;5031522;28;20421;-67
2023/02/20 12:09:14;;;;;;;6.35;1.35;;;;;;;;;;5031427;28;20049;-67
2023/02/20 12:11:40;;;;;;;5.75;1.10;;;;;;;;;;5031015;28;20440;-67
2023/02/20 12:14:10;;;;;;;5.28;1.40;;;;;;;;;;5031573;28;20045;-67
2023/02/20 12:16:40;;;;;;;5.07;1.27;;;;;;;;;;5031142;28;20045;-67
2023/02/20 12:19:09;;;;;;;5.50;1.40;;;;;;;;;;5031729;28;20026;-67
2023/02/20 12:21:35;;;;;;;8.65;1.45;;;;;;;;;;5030598;28;20525;-66
2023/02/20 12:24:28;;;;;;;10.00;1.40;;;;;;;;;;5038161;28;20053;-67
2023/02/20 12:26:59;;;;;;;4.75;1.27;;;;;;;;;;5034549;28;20393;-67
2023/02/20 12:29:34;;;;;;;6.38;1.30;;;;;;;;;;5051301;28;20025;-67
2023/02/20 12:32:05;;;;;;;6.22;1.10;;;;;;;;;;5051441;28;20029;-68
2023/02/20 12:34:40;;;;;;;5.03;1.00;;;;;;;;;;5051388;28;20079;-69
2023/02/20 12:37:24;;;;;;;6.00;1.70;;;;;;;;;;5043654;28;20018;-67
2023/02/20 12:39:57;;;;;;;3.45;1.05;;;;;;;;;;5030747;28;20033;-66
2023/02/20 12:42:37;;;;;;;5.47;1.25;;;;;;;;;;5031308;28;20031;-69
2023/02/20 12:45:18;;;;;;;4.75;1.40;;;;;;;;;;5029912;28;20482;-68
2023/02/20 12:47:45;;;;;;;4.38;1.10;;;;;;;;;;5029595;28;20141;-66
2023/02/20 12:50:23;;;;;;;5.07;0.90;;;;;;;;;;5030742;28;20037;-68
2023/02/20 12:53:12;;;;;;;4.28;1.10;;;;;;;;;;5030839;28;20033;-67
2023/02/20 12:55:45;;;;;;;5.35;1.60;;;;;;;;;;5029909;28;20041;-68
2023/02/20 12:58:27;;;;;;;3.92;1.02;;;;;;;;;;5030899;28;20036;-66
2023/02/20 13:00:54;;;;;;;4.90;1.55;;;;;;;;;;5030701;28;20030;-66
2023/02/20 13:03:23;;;;;;;8.77;1.23;;;;;;;;;;5031098;28;20033;-66
2023/02/20 13:05:50;;;;;;;5.20;1.10;;;;;;;;;;5030843;28;20392;-66
2023/02/20 13:08:19;;;;;;;5.28;1.13;;;;;;;;;;5030907;28;20040;-66
2023/02/20 13:10:53;;;;;;;3.45;1.20;;;;;;;;;;5030765;28;20551;-66
2023/02/20 13:13:19;;;;;;;5.45;1.42;;;;;;;;;;5031011;28;20041;-68
2023/02/20 13:16:00;;;;;;;4.57;1.10;;;;;;;;;;5030713;28;20018;-68
2023/02/20 13:18:41;;;;;;;6.63;0.93;;;;;;;;;;5030997;28;20100;-68
2023/02/20 13:21:13;;;;;;;4.55;0.85;;;;;;;;;;5030927;28;20104;-68
2023/02/20 13:23:39;;;;;;;4.43;0.82;;;;;;;;;;5030687;28;20378;-68
2023/02/20 13:26:24;;;;;;;3.88;1.10;;;;;;;;;;5030812;28;20026;-68
2023/02/20 13:28:50;;;;;;;5.72;1.15;;;;;;;;;;5030579;28;20030;-68
2023/02/20 13:31:22;;;;;;;4.80;1.23;;;;;;;;;;5030892;28;20138;-68
2023/02/20 13:34:04;;;;;;;4.00;1.10;;;;;;;;;;5030292;28;20072;-69
2023/02/20 13:36:41;;;;;;;3.30;0.85;;;;;;;;;;5031121;28;20082;-68
2023/02/20 13:39:19;;;;;;;3.25;0.80;;;;;;;;;;5030479;28;20482;-68
2023/02/20 13:41:54;;;;;;;4.38;0.88;;;;;;;;;;5030295;28;20075;-68
2023/02/20 13:44:29;;;;;;;4.93;1.08;;;;;;;;;;5030822;28;20072;-68
2023/02/20 13:46:56;;;;;;;4.68;1.00;;;;;;;;;;5030523;28;20053;-68
2023/02/20 13:49:51;;;;;;;5.20;1.05;;;;;;;;;;5030708;28;20029;-68
2023/02/20 13:52:48;;;;;;;3.42;0.82;;;;;;;;;;5028663;28;20518;-67
2023/02/20 13:55:24;;;;;;;4.25;0.95;;;;;;;;;;5030251;28;20398;-68
2023/02/20 13:57:52;;;;;;;2.90;0.90;;;;;;;;;;5030404;28;20448;-68
2023/02/20 14:00:38;;;;;;;4.32;1.05;;;;;;;;;;5033970;28;20473;-68
2023/02/20 14:03:11;;;;;;;4.05;1.10;;;;;;;;;;5034000;28;20024;-68
2023/02/20 14:05:37;;;;;;;3.28;1.08;;;;;;;;;;5033783;28;20029;-68
2023/02/20 14:08:03;;;;;;;3.05;0.77;;;;;;;;;;5034146;28;20104;-68
2023/02/20 14:10:36;;;;;;;2.85;0.80;;;;;;;;;;5034136;28;20473;-68
2023/02/20 14:13:22;;;;;;;3.38;0.88;;;;;;;;;;5033900;28;20378;-68
2023/02/20 14:15:50;;;;;;;2.47;0.88;;;;;;;;;;5033525;28;20416;-67
2023/02/20 14:18:17;;;;;;;2.30;0.65;;;;;;;;;;5033872;28;20028;-67
2023/02/20 14:20:44;;;;;;;2.17;0.70;;;;;;;;;;5033566;28;20083;-66
2023/02/20 14:23:16;;;;;;;3.40;1.35;;;;;;;;;;5033752;28;20386;-68
2023/02/20 14:25:51;;;;;;;5.45;0.90;;;;;;;;;;5033489;28;20049;-68
2023/02/20 14:28:17;;;;;;;3.97;0.95;;;;;;;;;;5033631;28;20370;-68
2023/02/20 14:30:43;;;;;;;3.85;0.90;;;;;;;;;;5033388;28;20028;-67
2023/02/20 14:33:19;;;;;;;2.75;0.70;;;;;;;;;;5033436;28;20437;-67
2023/02/20 14:35:45;;;;;;;;;;;;;;;;;;5033699;28;20037;-67
2023/02/20 14:38:17;;;;;;;2.97;1.10;;;;;;;;;;5033502;28;19905;-67
2023/02/20 14:40:46;;;;;;;3.47;0.90;;;;;;;;;;5033184;28;20515;-67
2023/02/20 14:43:18;;;;;;;3.53;1.00;;;;;;;;;;5033308;28;20026;-67
2023/02/20 14:45:45;;;;;;;3.28;1.05;;;;;;;;;;5033147;28;20424;-67
2023/02/20 14:48:22;;;;;;;4.20;0.75;;;;;;;;;;5033337;28;20033;-67
2023/02/20 14:50:48;;;;;;;3.20;0.82;;;;;;;;;;5032860;28;20029;-67
2023/02/20 14:53:17;;;;;;;3.45;1.13;;;;;;;;;;5033184;28;20083;-66
2023/02/20 14:55:43;;;;;;;3.70;0.80;;;;;;;;;;5032874;28;20022;-66
2023/02/20 14:58:22;;;;;;;1.10;0.50;;;;;;;;;;5033148;28;20056;-66
2023/02/20 15:00:49;;;;;;;2.47;0.77;;;;;;;;;;5032650;28;20050;-66
2023/02/20 15:03:20;;;;;;;2.92;0.80;;;;;;;;;;5033001;28;20029;-66
2023/02/20 15:05:47;;;;;;;1.98;0.85;;;;;;;;;;5032679;28;20032;-66
2023/02/20 15:08:22;;;;;;;3.67;0.73;;;;;;;;;;5032833;28;20025;-67
2023/02/20 15:10:49;;;;;;;2.30;0.70;;;;;;;;;;5031870;28;20029;-66
2023/02/20 15:13:18;;;;;;;3.35;0.80;;;;;;;;;;5032733;28;20037;-67